createdAt,value
2023-05-23T00:00:05.863Z,16.30
2023-05-23T00:01:14.826Z,16.30
2023-05-23T00:02:16.588Z,16.30
2023-05-23T00:03:18.200Z,16.30
2023-05-23T00:04:20.654Z,16.20
2023-05-23T00:05:24.126Z,16.20
2023-05-23T00:06:26.851Z,16.10
2023-05-23T00:07:32.420Z,16.20
2023-05-23T00:08:34.025Z,16.20
2023-05-23T00:09:35.666Z,16.20
2023-05-23T00:10:37.155Z,16.20
2023-05-23T00:11:39.115Z,16.10
2023-05-23T00:12:42.712Z,16.10
2023-05-23T00:13:44.257Z,16.10
2023-05-23T00:14:46.333Z,16.10
2023-05-23T00:15:48.676Z,16.10
2023-05-23T00:16:50.180Z,16.10
2023-05-23T00:17:51.893Z,16.10
2023-05-23T00:18:59.233Z,16.00
2023-05-23T00:20:01.691Z,16.00
2023-05-23T00:21:03.775Z,16.00
2023-05-23T00:22:05.500Z,16.00
2023-05-23T00:23:08.787Z,16.00
2023-05-23T00:24:10.623Z,16.00
2023-05-23T00:25:12.251Z,16.00
2023-05-23T00:26:13.781Z,15.90
2023-05-23T00:27:20.269Z,15.90
2023-05-23T00:28:22.906Z,15.90
2023-05-23T00:29:24.607Z,15.90
2023-05-23T00:30:27.714Z,15.90
2023-05-23T00:31:29.648Z,16.00
2023-05-23T00:32:31.871Z,16.00
2023-05-23T00:33:34.333Z,16.00
2023-05-23T00:34:37.717Z,16.10
2023-05-23T00:35:39.534Z,16.00
2023-05-23T00:36:43.587Z,16.00
2023-05-23T00:37:45.588Z,16.00
2023-05-23T00:38:47.548Z,15.90
2023-05-23T00:39:49.499Z,15.90
2023-05-23T00:40:51.240Z,16.00
2023-05-23T00:41:53.636Z,16.00
2023-05-23T00:42:55.069Z,15.90
2023-05-23T00:44:01.717Z,15.90
2023-05-23T00:45:03.358Z,15.80
2023-05-23T00:46:05.415Z,15.80
2023-05-23T00:47:08.061Z,15.70
2023-05-23T00:48:10.381Z,15.80
2023-05-23T00:49:12.501Z,15.80
2023-05-23T00:50:15.956Z,15.80
2023-05-23T00:51:18.415Z,15.80
2023-05-23T00:52:20.314Z,15.70
2023-05-23T00:53:22.251Z,15.70
2023-05-23T00:54:31.354Z,15.70
2023-05-23T00:55:33.536Z,15.70
2023-05-23T00:56:36.251Z,15.70
2023-05-23T00:57:44.567Z,15.80
2023-05-23T00:58:47.703Z,15.80
2023-05-23T00:59:49.196Z,15.80
2023-05-23T01:00:54.392Z,15.80
2023-05-23T01:01:57.561Z,15.70
2023-05-23T01:02:59.242Z,15.70
2023-05-23T01:04:03.026Z,15.70
2023-05-23T01:05:06.118Z,15.70
2023-05-23T01:06:08.969Z,15.80
2023-05-23T01:07:11.107Z,15.80
2023-05-23T01:08:13.701Z,15.80
2023-05-23T01:09:16.930Z,15.80
2023-05-23T01:10:26.573Z,15.90
2023-05-23T01:11:43.701Z,15.90
2023-05-23T01:13:09.981Z,15.90
2023-05-23T01:14:22.458Z,16.00
2023-05-23T01:15:45.660Z,16.00
2023-05-23T01:17:20.132Z,16.00
2023-05-23T01:18:38.524Z,16.00
2023-05-23T01:19:49.298Z,16.00
2023-05-23T01:20:57.123Z,16.10
2023-05-23T01:22:02.683Z,16.10
2023-05-23T01:23:11.991Z,16.10
2023-05-23T01:24:16.150Z,16.10
2023-05-23T01:25:27.613Z,16.10
2023-05-23T01:26:44.929Z,16.10
2023-05-23T01:27:54.177Z,16.20
2023-05-23T01:29:05.876Z,16.20
2023-05-23T01:30:11.217Z,16.30
2023-05-23T01:31:13.677Z,16.40
2023-05-23T01:32:16.313Z,16.40
2023-05-23T01:33:20.531Z,16.40
2023-05-23T01:34:22.646Z,16.40
2023-05-23T01:35:27.871Z,16.40
2023-05-23T01:36:30.017Z,16.40
2023-05-23T01:37:31.507Z,16.40
2023-05-23T01:38:33.722Z,16.40
2023-05-23T01:39:35.169Z,16.40
2023-05-23T01:40:37.774Z,16.40
2023-05-23T01:41:39.473Z,16.50
2023-05-23T01:42:41.602Z,16.50
2023-05-23T01:43:43.181Z,16.60
2023-05-23T01:44:46.023Z,16.60
2023-05-23T01:45:49.200Z,16.50
2023-05-23T01:46:52.132Z,16.50
2023-05-23T01:47:54.927Z,16.50
2023-05-23T01:48:57.974Z,16.50
2023-05-23T01:50:00.813Z,16.60
2023-05-23T01:51:03.840Z,16.60
2023-05-23T01:52:10.079Z,16.60
2023-05-23T01:53:17.200Z,16.60
2023-05-23T01:54:19.955Z,16.60
2023-05-23T01:55:26.484Z,16.60
2023-05-23T01:56:29.580Z,16.60
2023-05-23T01:57:31.243Z,16.60
2023-05-23T01:58:34.587Z,16.60
2023-05-23T01:59:37.159Z,16.70
2023-05-23T02:00:38.883Z,16.70
2023-05-23T02:01:41.677Z,16.70
2023-05-23T02:02:43.667Z,16.70
2023-05-23T02:03:46.470Z,16.70
2023-05-23T02:04:49.924Z,16.70
2023-05-23T02:05:53.350Z,16.70
2023-05-23T02:06:55.188Z,16.70
2023-05-23T02:07:57.332Z,16.80
2023-05-23T02:08:58.840Z,16.80
2023-05-23T02:10:00.513Z,16.80
2023-05-23T02:11:03.665Z,16.80
2023-05-23T02:12:05.472Z,16.80
2023-05-23T02:13:07.233Z,16.80
2023-05-23T02:14:11.666Z,16.80
2023-05-23T02:15:13.647Z,16.80
2023-05-23T02:16:15.965Z,16.80
2023-05-23T02:17:18.326Z,16.80
2023-05-23T02:18:21.225Z,16.80
2023-05-23T02:19:26.719Z,16.80
2023-05-23T02:20:28.226Z,16.80
2023-05-23T02:21:29.677Z,16.90
2023-05-23T02:22:32.084Z,16.80
2023-05-23T02:23:33.728Z,16.90
2023-05-23T02:24:35.844Z,16.90
2023-05-23T02:25:37.354Z,16.90
2023-05-23T02:26:41.745Z,16.90
2023-05-23T02:27:43.183Z,16.90
2023-05-23T02:28:44.618Z,16.90
2023-05-23T02:29:46.147Z,16.90
2023-05-23T02:30:48.110Z,16.90
2023-05-23T02:31:49.669Z,16.90
2023-05-23T02:32:51.773Z,16.90
2023-05-23T02:33:53.699Z,16.90
2023-05-23T02:34:57.033Z,17.00
2023-05-23T02:35:59.039Z,17.00
2023-05-23T02:37:00.594Z,16.90
2023-05-23T02:38:02.165Z,16.90
2023-05-23T02:39:05.129Z,17.00
2023-05-23T02:40:08.446Z,17.00
2023-05-23T02:41:11.130Z,17.00
2023-05-23T02:42:13.276Z,17.00
2023-05-23T02:43:14.852Z,17.00
2023-05-23T02:44:16.700Z,17.00
2023-05-23T02:45:19.027Z,17.00
2023-05-23T02:46:21.962Z,17.00
2023-05-23T02:47:23.771Z,17.00
2023-05-23T02:48:25.651Z,17.00
2023-05-23T02:49:27.417Z,17.00
2023-05-23T02:50:28.928Z,17.00
2023-05-23T02:51:31.618Z,17.00
2023-05-23T02:52:33.531Z,17.00
2023-05-23T02:53:35.159Z,17.10
2023-05-23T02:54:36.713Z,17.10
2023-05-23T02:55:38.878Z,17.00
2023-05-23T02:56:40.688Z,17.00
2023-05-23T02:57:42.585Z,16.80
2023-05-23T02:58:44.317Z,16.90
2023-05-23T02:59:45.850Z,16.90
2023-05-23T03:00:47.339Z,16.90
2023-05-23T03:01:49.105Z,16.90
2023-05-23T03:02:50.801Z,16.90
2023-05-23T03:03:52.360Z,16.80
2023-05-23T03:04:53.836Z,16.80
2023-05-23T03:05:55.305Z,16.70
2023-05-23T03:06:59.624Z,16.70
2023-05-23T03:08:01.068Z,16.60
2023-05-23T03:09:02.661Z,16.60
2023-05-23T03:10:05.064Z,16.50
2023-05-23T03:11:06.495Z,16.50
2023-05-23T03:12:08.038Z,16.50
2023-05-23T03:13:09.640Z,16.50
2023-05-23T03:14:11.140Z,16.40
2023-05-23T03:15:12.941Z,16.40
2023-05-23T03:16:17.114Z,16.40
2023-05-23T03:17:18.602Z,16.40
2023-05-23T03:18:20.067Z,16.30
2023-05-23T03:19:21.947Z,16.30
2023-05-23T03:20:23.786Z,16.30
2023-05-23T03:21:25.723Z,16.30
2023-05-23T03:22:27.189Z,16.20
2023-05-23T03:23:28.621Z,16.20
2023-05-23T03:24:31.890Z,16.20
2023-05-23T03:25:33.351Z,16.20
2023-05-23T03:26:34.765Z,16.30
2023-05-23T03:27:36.461Z,16.20
2023-05-23T03:28:38.038Z,16.20
2023-05-23T03:29:39.805Z,16.20
2023-05-23T03:30:41.575Z,16.20
2023-05-23T03:31:43.317Z,16.20
2023-05-23T03:32:44.934Z,16.20
2023-05-23T03:33:46.755Z,16.20
2023-05-23T03:34:48.156Z,16.20
2023-05-23T03:35:49.539Z,16.20
2023-05-23T03:36:51.401Z,16.20
2023-05-23T03:37:52.908Z,16.20
2023-05-23T03:38:54.404Z,16.20
2023-05-23T03:39:55.895Z,16.20
2023-05-23T03:40:57.807Z,16.20
2023-05-23T03:41:59.631Z,16.20
2023-05-23T03:43:08.485Z,16.20
2023-05-23T03:44:14.677Z,16.20
2023-05-23T03:45:16.505Z,16.20
2023-05-23T03:46:18.837Z,16.20
2023-05-23T03:47:21.235Z,16.20
2023-05-23T03:48:24.033Z,16.20
2023-05-23T03:49:26.192Z,16.20
2023-05-23T03:50:27.923Z,16.10
2023-05-23T03:51:29.540Z,16.10
2023-05-23T03:52:31.197Z,16.10
2023-05-23T03:53:34.393Z,16.10
2023-05-23T03:54:38.355Z,16.10
2023-05-23T03:55:40.371Z,16.10
2023-05-23T03:56:42.125Z,16.00
2023-05-23T03:57:44.187Z,16.00
2023-05-23T03:58:46.322Z,16.00
2023-05-23T03:59:49.556Z,16.00
2023-05-23T04:00:53.325Z,16.00
2023-05-23T04:01:58.803Z,16.00
2023-05-23T04:03:00.447Z,15.90
2023-05-23T04:04:02.083Z,15.90
2023-05-23T04:05:07.774Z,15.90
2023-05-23T04:06:09.738Z,15.90
2023-05-23T04:07:15.676Z,16.00
2023-05-23T04:08:21.940Z,16.00
2023-05-23T04:09:25.413Z,16.00
2023-05-23T04:10:28.039Z,16.10
2023-05-23T04:11:30.321Z,16.10
2023-05-23T04:12:31.922Z,16.10
2023-05-23T04:13:33.852Z,16.10
2023-05-23T04:14:35.983Z,16.10
2023-05-23T04:15:37.439Z,16.10
2023-05-23T04:16:42.663Z,16.10
2023-05-23T04:17:45.410Z,16.10
2023-05-23T04:18:48.307Z,16.10
2023-05-23T04:19:50.790Z,16.20
2023-05-23T04:20:52.687Z,16.20
2023-05-23T04:21:54.179Z,16.20
2023-05-23T04:22:55.763Z,16.20
2023-05-23T04:23:59.372Z,16.20
2023-05-23T04:25:01.036Z,16.20
2023-05-23T04:26:06.331Z,16.30
2023-05-23T04:27:10.413Z,16.30
2023-05-23T04:28:12.544Z,16.30
2023-05-23T04:29:14.375Z,16.40
2023-05-23T04:30:17.993Z,16.30
2023-05-23T04:31:22.214Z,16.30
2023-05-23T04:32:24.260Z,16.40
2023-05-23T04:33:26.277Z,16.40
2023-05-23T04:34:27.975Z,16.40
2023-05-23T04:35:29.839Z,16.40
2023-05-23T04:36:31.688Z,16.40
2023-05-23T04:37:34.045Z,16.50
2023-05-23T04:38:38.385Z,16.50
2023-05-23T04:39:39.888Z,16.50
2023-05-23T04:41:13.133Z,16.50
2023-05-23T04:42:25.766Z,16.50
2023-05-23T04:43:54.689Z,16.60
2023-05-23T04:45:03.667Z,16.60
2023-05-23T04:46:26.443Z,16.60
2023-05-23T04:47:42.390Z,16.70
2023-05-23T04:48:45.872Z,16.70
2023-05-23T04:49:48.017Z,16.70
2023-05-23T04:50:51.304Z,16.70
2023-05-23T04:51:52.936Z,16.80
2023-05-23T04:53:04.577Z,16.80
2023-05-23T04:54:06.772Z,16.80
2023-05-23T04:55:09.211Z,16.80
2023-05-23T04:56:10.976Z,16.80
2023-05-23T04:57:13.552Z,16.80
2023-05-23T04:58:15.907Z,16.80
2023-05-23T04:59:17.701Z,16.90
2023-05-23T05:00:20.418Z,16.90
2023-05-23T05:01:24.602Z,16.90
2023-05-23T05:02:27.148Z,16.90
2023-05-23T05:03:28.830Z,16.90
2023-05-23T05:04:31.210Z,16.90
2023-05-23T05:05:33.172Z,17.00
2023-05-23T05:06:34.718Z,17.00
2023-05-23T05:07:37.063Z,17.00
2023-05-23T05:08:40.789Z,17.00
2023-05-23T05:09:43.030Z,17.00
2023-05-23T05:10:46.309Z,17.10
2023-05-23T05:11:48.789Z,17.10
2023-05-23T05:12:50.440Z,17.00
2023-05-23T05:13:52.830Z,17.10
2023-05-23T05:14:54.826Z,17.10
2023-05-23T05:15:57.173Z,17.10
2023-05-23T05:17:00.088Z,17.10
2023-05-23T05:18:08.895Z,17.10
2023-05-23T05:19:10.507Z,17.10
2023-05-23T05:20:12.314Z,17.10
2023-05-23T05:21:14.253Z,17.00
2023-05-23T05:22:16.196Z,17.00
2023-05-23T05:23:18.196Z,17.00
2023-05-23T05:24:22.759Z,17.10
2023-05-23T05:25:25.072Z,17.10
2023-05-23T05:26:28.202Z,17.20
2023-05-23T05:27:30.208Z,17.30
2023-05-23T05:28:34.545Z,17.30
2023-05-23T05:29:36.988Z,17.30
2023-05-23T05:30:39.117Z,17.40
2023-05-23T05:31:41.311Z,17.50
2023-05-23T05:32:46.080Z,17.60
2023-05-23T05:33:50.020Z,17.60
2023-05-23T05:34:52.092Z,17.60
2023-05-23T05:35:53.887Z,17.70
2023-05-23T05:36:58.066Z,17.70
2023-05-23T05:38:02.871Z,17.80
2023-05-23T05:39:04.616Z,17.80
2023-05-23T05:40:08.362Z,17.90
2023-05-23T05:41:12.663Z,17.80
2023-05-23T05:42:24.486Z,17.70
2023-05-23T05:43:26.845Z,17.60
2023-05-23T05:44:28.459Z,17.60
2023-05-23T05:45:30.087Z,17.60
2023-05-23T05:46:32.028Z,17.60
2023-05-23T05:47:35.013Z,17.70
2023-05-23T05:48:37.495Z,17.60
2023-05-23T05:49:43.135Z,17.60
2023-05-23T05:50:46.148Z,17.70
2023-05-23T05:51:48.566Z,17.60
2023-05-23T05:52:50.525Z,17.60
2023-05-23T05:53:52.416Z,17.60
2023-05-23T05:54:54.931Z,17.60
2023-05-23T05:55:59.818Z,17.60
2023-05-23T05:57:01.910Z,17.60
2023-05-23T05:58:03.446Z,17.70
2023-05-23T05:59:12.605Z,17.70
2023-05-23T06:00:15.852Z,17.80
2023-05-23T06:01:20.763Z,17.80
2023-05-23T06:02:22.494Z,17.80
2023-05-23T06:03:24.916Z,17.80
2023-05-23T06:04:31.243Z,17.80
2023-05-23T06:05:33.596Z,17.80
2023-05-23T06:06:35.655Z,17.80
2023-05-23T06:07:38.297Z,17.80
2023-05-23T06:08:42.387Z,17.80
2023-05-23T06:09:47.957Z,17.70
2023-05-23T06:10:49.807Z,17.70
2023-05-23T06:11:51.521Z,17.60
2023-05-23T06:12:53.287Z,17.60
2023-05-23T06:13:55.018Z,17.60
2023-05-23T06:14:56.865Z,17.60
2023-05-23T06:15:58.585Z,17.60
2023-05-23T06:17:00.391Z,17.60
2023-05-23T06:18:01.979Z,17.60
2023-05-23T06:19:05.779Z,17.60
2023-05-23T06:20:08.556Z,17.60
2023-05-23T06:21:12.613Z,17.60
2023-05-23T06:22:14.539Z,17.50
2023-05-23T06:23:16.660Z,17.40
2023-05-23T06:24:19.935Z,17.40
2023-05-23T06:25:21.731Z,17.40
2023-05-23T06:26:23.688Z,17.40
2023-05-23T06:27:27.189Z,17.50
2023-05-23T06:28:29.419Z,17.50
2023-05-23T06:29:31.449Z,17.40
2023-05-23T06:30:37.043Z,17.40
2023-05-23T06:31:39.181Z,17.50
2023-05-23T06:32:41.375Z,17.50
2023-05-23T06:33:43.320Z,17.50
2023-05-23T06:34:45.692Z,17.50
2023-05-23T06:35:47.399Z,17.60
2023-05-23T06:36:49.072Z,17.60
2023-05-23T06:37:51.026Z,17.70
2023-05-23T06:38:54.773Z,17.70
2023-05-23T06:39:57.480Z,17.80
2023-05-23T06:40:59.474Z,17.80
2023-05-23T06:42:02.630Z,17.80
2023-05-23T06:43:15.259Z,17.80
2023-05-23T06:44:22.555Z,17.80
2023-05-23T06:45:28.764Z,17.90
2023-05-23T06:46:31.422Z,17.90
2023-05-23T06:47:33.147Z,17.90
2023-05-23T06:48:37.513Z,17.90
2023-05-23T06:49:39.239Z,17.90
2023-05-23T06:50:41.632Z,17.90
2023-05-23T06:51:45.068Z,17.90
2023-05-23T06:52:47.435Z,17.80
2023-05-23T06:53:49.163Z,17.80
2023-05-23T06:54:51.674Z,17.70
2023-05-23T06:55:54.299Z,17.70
2023-05-23T06:56:57.198Z,17.70
2023-05-23T06:58:04.028Z,17.70
2023-05-23T06:59:05.802Z,17.60
2023-05-23T07:00:08.026Z,17.60
2023-05-23T07:01:16.150Z,17.60
2023-05-23T07:02:21.832Z,17.70
2023-05-23T07:03:23.528Z,17.70
2023-05-23T07:04:25.757Z,17.80
2023-05-23T07:05:28.467Z,17.70
2023-05-23T07:06:31.494Z,17.70
2023-05-23T07:07:33.134Z,17.70
2023-05-23T07:08:34.953Z,17.70
2023-05-23T07:09:39.373Z,17.80
2023-05-23T07:10:46.646Z,17.90
2023-05-23T07:12:02.754Z,18.00
2023-05-23T07:13:04.643Z,17.90
2023-05-23T07:14:07.750Z,17.80
2023-05-23T07:15:17.222Z,17.70
2023-05-23T07:16:29.623Z,17.70
2023-05-23T07:17:36.595Z,17.80
2023-05-23T07:18:38.869Z,17.70
2023-05-23T07:19:41.096Z,17.60
2023-05-23T07:20:43.018Z,17.60
2023-05-23T07:21:51.653Z,17.70
2023-05-23T07:22:54.169Z,17.70
2023-05-23T07:23:55.843Z,17.70
2023-05-23T07:24:57.835Z,17.60
2023-05-23T07:26:05.081Z,17.60
2023-05-23T07:27:15.818Z,17.60
2023-05-23T07:28:20.079Z,17.60
2023-05-23T07:29:22.075Z,17.60
2023-05-23T07:30:26.392Z,17.50
2023-05-23T07:31:28.172Z,17.40
2023-05-23T07:32:32.879Z,17.40
2023-05-23T07:33:34.717Z,17.40
2023-05-23T07:34:38.931Z,17.40
2023-05-23T07:35:40.572Z,17.50
2023-05-23T07:36:42.611Z,17.50
2023-05-23T07:37:49.012Z,17.60
2023-05-23T07:38:53.335Z,17.60
2023-05-23T07:39:55.568Z,17.70
2023-05-23T07:41:09.942Z,17.70
2023-05-23T07:42:12.847Z,17.70
2023-05-23T07:43:15.482Z,17.80
2023-05-23T07:44:19.004Z,17.70
2023-05-23T07:45:22.066Z,17.80
2023-05-23T07:46:24.108Z,17.80
2023-05-23T07:47:25.980Z,17.80
2023-05-23T07:48:27.614Z,17.80
2023-05-23T07:49:29.324Z,17.80
2023-05-23T07:50:32.049Z,17.80
2023-05-23T07:51:35.250Z,17.90
2023-05-23T07:52:36.898Z,18.10
2023-05-23T07:53:40.699Z,18.20
2023-05-23T07:54:46.161Z,18.40
2023-05-23T07:55:48.246Z,18.60
2023-05-23T07:56:49.931Z,18.80
2023-05-23T07:57:54.925Z,18.90
2023-05-23T07:58:56.633Z,19.10
2023-05-23T07:59:58.828Z,19.10
2023-05-23T08:01:03.570Z,19.00
2023-05-23T08:02:34.669Z,19.00
2023-05-23T08:03:37.462Z,18.70
2023-05-23T08:04:45.415Z,18.70
2023-05-23T08:05:47.500Z,18.80
2023-05-23T08:07:04.434Z,19.00
2023-05-23T08:08:23.989Z,19.20
2023-05-23T08:09:25.908Z,19.60
2023-05-23T08:10:30.747Z,19.80
2023-05-23T08:11:39.740Z,19.80
2023-05-23T08:12:41.905Z,20.00
2023-05-23T08:13:48.830Z,20.00
2023-05-23T08:15:19.852Z,20.10
2023-05-23T08:16:28.347Z,20.10
2023-05-23T08:17:30.301Z,20.10
2023-05-23T08:18:32.612Z,19.80
2023-05-23T08:19:34.276Z,19.80
2023-05-23T08:20:36.440Z,19.90
2023-05-23T08:21:38.040Z,19.80
2023-05-23T08:22:39.724Z,19.70
2023-05-23T08:23:41.282Z,19.80
2023-05-23T08:24:43.064Z,19.90
2023-05-23T08:25:44.564Z,19.70
2023-05-23T08:26:47.004Z,19.60
2023-05-23T08:27:49.680Z,19.80
2023-05-23T08:29:06.874Z,19.70
2023-05-23T08:30:09.909Z,19.80
2023-05-23T08:31:12.629Z,19.90
2023-05-23T08:32:14.213Z,19.90
2023-05-23T08:33:15.878Z,19.80
2023-05-23T08:34:19.679Z,19.50
2023-05-23T08:35:22.962Z,19.50
2023-05-23T08:36:25.130Z,19.50
2023-05-23T08:37:26.837Z,19.40
2023-05-23T08:38:28.452Z,19.40
2023-05-23T08:39:41.611Z,19.40
2023-05-23T08:41:24.892Z,19.30
2023-05-23T08:42:31.903Z,19.10
2023-05-23T08:43:33.741Z,19.00
2023-05-23T08:44:36.296Z,18.90
2023-05-23T08:45:38.355Z,18.90
2023-05-23T08:46:46.934Z,18.90
2023-05-23T08:48:01.887Z,18.90
2023-05-23T08:49:05.332Z,18.90
2023-05-23T08:50:10.969Z,18.90
2023-05-23T08:51:14.359Z,19.00
2023-05-23T08:52:22.104Z,19.00
2023-05-23T08:53:29.054Z,18.90
2023-05-23T08:54:38.751Z,18.90
2023-05-23T08:55:43.786Z,18.90
2023-05-23T08:56:49.352Z,18.90
2023-05-23T08:57:52.447Z,19.00
2023-05-23T08:59:18.271Z,18.90
2023-05-23T09:00:21.369Z,19.10
2023-05-23T09:01:23.739Z,19.10
2023-05-23T09:02:31.381Z,19.20
2023-05-23T09:03:43.168Z,19.30
2023-05-23T09:04:59.695Z,19.50
2023-05-23T09:06:02.000Z,19.40
2023-05-23T09:07:05.595Z,19.40
2023-05-23T09:08:07.453Z,19.50
2023-05-23T09:09:09.489Z,19.60
2023-05-23T09:10:11.433Z,19.70
2023-05-23T09:11:14.045Z,19.80
2023-05-23T09:12:18.173Z,19.80
2023-05-23T09:13:21.581Z,19.70
2023-05-23T09:14:26.908Z,19.70
2023-05-23T09:15:31.848Z,19.70
2023-05-23T09:16:35.168Z,19.70
2023-05-23T09:17:42.858Z,19.70
2023-05-23T09:18:45.321Z,19.60
2023-05-23T09:19:50.044Z,19.40
2023-05-23T09:20:59.145Z,19.30
2023-05-23T09:22:02.831Z,19.40
2023-05-23T09:23:24.585Z,19.40
2023-05-23T09:24:35.968Z,19.40
2023-05-23T09:25:46.763Z,19.40
2023-05-23T09:26:49.304Z,19.60
2023-05-23T09:27:53.491Z,19.60
2023-05-23T09:28:58.675Z,19.80
2023-05-23T09:30:06.826Z,19.90
2023-05-23T09:31:10.553Z,20.00
2023-05-23T09:32:17.025Z,20.00
2023-05-23T09:33:18.564Z,20.00
2023-05-23T09:34:20.434Z,19.80
2023-05-23T09:35:23.872Z,19.80
2023-05-23T09:36:36.837Z,19.90
2023-05-23T09:37:46.897Z,20.00
2023-05-23T09:38:52.547Z,20.10
2023-05-23T09:39:54.109Z,20.10
2023-05-23T09:40:59.633Z,20.20
2023-05-23T09:42:01.498Z,20.00
2023-05-23T09:43:04.802Z,19.90
2023-05-23T09:44:08.941Z,19.80
2023-05-23T09:45:11.369Z,19.70
2023-05-23T09:46:13.455Z,19.80
2023-05-23T09:47:16.796Z,19.70
2023-05-23T09:48:18.407Z,19.60
2023-05-23T09:49:20.842Z,19.50
2023-05-23T09:50:24.408Z,19.50
2023-05-23T09:51:26.266Z,19.50
2023-05-23T09:52:41.050Z,19.50
2023-05-23T09:53:42.743Z,19.50
2023-05-23T09:54:44.546Z,19.60
2023-05-23T09:55:46.778Z,19.60
2023-05-23T09:56:49.760Z,19.70
2023-05-23T09:57:56.665Z,19.70
2023-05-23T09:58:59.416Z,19.80
2023-05-23T10:00:05.959Z,19.70
2023-05-23T10:01:15.983Z,19.80
2023-05-23T10:02:33.261Z,19.80
2023-05-23T10:03:44.369Z,19.80
2023-05-23T10:04:46.533Z,19.80
2023-05-23T10:05:49.927Z,19.60
2023-05-23T10:07:00.184Z,19.70
2023-05-23T10:08:07.316Z,19.70
2023-05-23T10:09:15.538Z,19.80
2023-05-23T10:10:17.774Z,19.80
2023-05-23T10:11:58.045Z,19.80
2023-05-23T10:13:04.196Z,19.90
2023-05-23T10:14:09.173Z,20.00
2023-05-23T10:15:15.665Z,20.20
2023-05-23T10:16:54.639Z,20.40
2023-05-23T10:18:11.926Z,20.50
2023-05-23T10:19:34.945Z,20.70
2023-05-23T10:20:40.373Z,20.80
2023-05-23T10:21:51.291Z,20.80
2023-05-23T10:22:54.285Z,20.80
2023-05-23T10:23:58.199Z,20.80
2023-05-23T10:25:00.462Z,20.90
2023-05-23T10:26:05.020Z,20.90
2023-05-23T10:27:07.451Z,21.00
2023-05-23T10:28:09.528Z,21.10
2023-05-23T10:29:11.022Z,21.10
2023-05-23T10:30:13.480Z,21.00
2023-05-23T10:31:15.161Z,20.90
2023-05-23T10:32:17.912Z,20.80
2023-05-23T10:33:20.633Z,20.90
2023-05-23T10:34:29.984Z,20.90
2023-05-23T10:35:55.818Z,20.90
2023-05-23T10:37:08.361Z,20.90
2023-05-23T10:38:28.472Z,20.90
2023-05-23T10:39:47.969Z,20.80
2023-05-23T10:41:14.201Z,20.90
2023-05-23T10:42:49.009Z,21.00
2023-05-23T10:44:16.811Z,21.20
2023-05-23T10:45:24.217Z,21.30
2023-05-23T10:46:52.679Z,21.20
2023-05-23T10:47:54.861Z,21.30
2023-05-23T10:48:59.201Z,21.40
2023-05-23T10:50:01.497Z,21.30
2023-05-23T10:51:11.459Z,21.30
2023-05-23T10:52:16.001Z,21.20
2023-05-23T10:53:17.599Z,21.30
2023-05-23T10:54:20.824Z,21.10
2023-05-23T10:55:23.096Z,21.20
2023-05-23T10:56:24.872Z,21.20
2023-05-23T10:57:29.754Z,21.10
2023-05-23T10:58:31.988Z,20.90
2023-05-23T10:59:33.672Z,20.90
2023-05-23T11:00:35.277Z,20.80
2023-05-23T11:01:39.988Z,20.70
2023-05-23T11:02:54.803Z,20.70
2023-05-23T11:03:56.701Z,20.80
2023-05-23T11:05:24.555Z,20.90
2023-05-23T11:06:45.232Z,21.00
2023-05-23T11:07:46.792Z,21.20
2023-05-23T11:08:49.203Z,21.20
2023-05-23T11:10:10.715Z,21.30
2023-05-23T11:11:12.441Z,21.30
2023-05-23T11:12:13.957Z,21.30
2023-05-23T11:13:15.858Z,21.30
2023-05-23T11:14:17.734Z,21.10
2023-05-23T11:15:22.328Z,21.10
2023-05-23T11:16:40.135Z,21.00
2023-05-23T11:17:56.795Z,20.90
2023-05-23T11:19:20.222Z,20.90
2023-05-23T11:20:27.546Z,21.00
2023-05-23T11:21:30.307Z,21.00
2023-05-23T11:22:33.017Z,21.10
2023-05-23T11:23:42.068Z,21.20
2023-05-23T11:24:54.662Z,21.20
2023-05-23T11:25:56.789Z,21.30
2023-05-23T11:27:04.140Z,21.30
2023-05-23T11:28:06.431Z,21.20
2023-05-23T11:29:10.890Z,21.30
2023-05-23T11:30:15.749Z,21.40
2023-05-23T11:31:17.535Z,21.50
2023-05-23T11:32:19.767Z,21.60
2023-05-23T11:33:21.501Z,21.80
2023-05-23T11:34:26.104Z,21.70
2023-05-23T11:35:30.447Z,21.80
2023-05-23T11:36:32.677Z,21.90
2023-05-23T11:37:34.368Z,22.00
2023-05-23T11:38:36.441Z,21.80
2023-05-23T11:39:38.211Z,21.90
2023-05-23T11:40:42.739Z,21.90
2023-05-23T11:41:44.467Z,21.90
2023-05-23T11:42:49.376Z,21.80
2023-05-23T11:43:54.458Z,21.80
2023-05-23T11:44:56.030Z,21.80
2023-05-23T11:45:57.774Z,21.90
2023-05-23T11:47:04.485Z,21.80
2023-05-23T11:48:13.487Z,21.80
2023-05-23T11:49:14.995Z,21.80
2023-05-23T11:50:16.998Z,21.70
2023-05-23T11:51:19.986Z,21.70
2023-05-23T11:52:21.760Z,21.80
2023-05-23T11:53:26.480Z,21.90
2023-05-23T11:54:28.746Z,21.90
2023-05-23T11:55:30.829Z,21.80
2023-05-23T11:56:32.399Z,21.80
2023-05-23T11:57:34.148Z,21.80
2023-05-23T11:58:38.023Z,22.00
2023-05-23T11:59:39.691Z,22.10
2023-05-23T12:00:45.738Z,22.00
2023-05-23T12:01:50.033Z,22.00
2023-05-23T12:02:54.694Z,22.00
2023-05-23T12:03:56.441Z,22.10
2023-05-23T12:04:58.271Z,22.20
2023-05-23T12:06:01.888Z,22.30
2023-05-23T12:07:06.896Z,22.30
2023-05-23T12:08:12.415Z,22.30
2023-05-23T12:09:14.374Z,22.20
2023-05-23T12:10:17.561Z,22.20
2023-05-23T12:11:19.184Z,22.30
2023-05-23T12:12:21.378Z,22.10
2023-05-23T12:13:28.617Z,22.10
2023-05-23T12:14:30.303Z,22.00
2023-05-23T12:15:32.364Z,22.00
2023-05-23T12:16:34.874Z,22.10
2023-05-23T12:17:38.086Z,22.00
2023-05-23T12:18:39.720Z,22.10
2023-05-23T12:19:47.007Z,22.10
2023-05-23T12:20:52.451Z,22.20
2023-05-23T12:21:54.065Z,22.10
2023-05-23T12:22:57.362Z,22.10
2023-05-23T12:23:58.855Z,22.10
2023-05-23T12:25:02.860Z,22.10
2023-05-23T12:26:07.293Z,22.10
2023-05-23T12:27:10.205Z,22.00
2023-05-23T12:28:16.049Z,22.10
2023-05-23T12:29:32.823Z,22.20
2023-05-23T12:30:47.153Z,22.10
2023-05-23T12:31:52.439Z,22.10
2023-05-23T12:32:54.926Z,22.20
2023-05-23T12:33:57.942Z,22.30
2023-05-23T12:35:00.142Z,22.40
2023-05-23T12:36:01.924Z,22.30
2023-05-23T12:38:08.782Z,22.40
2023-05-23T12:39:10.634Z,22.30
2023-05-23T12:40:14.265Z,22.20
2023-05-23T12:41:19.857Z,22.10
2023-05-23T12:42:21.703Z,22.20
2023-05-23T12:43:23.140Z,22.10
2023-05-23T12:44:30.673Z,22.20
2023-05-23T12:45:34.763Z,22.00
2023-05-23T12:46:38.190Z,22.10
2023-05-23T12:47:39.969Z,22.00
2023-05-23T12:48:41.478Z,22.00
2023-05-23T12:49:44.861Z,22.00
2023-05-23T12:50:46.544Z,21.90
2023-05-23T12:51:48.069Z,22.00
2023-05-23T12:52:50.528Z,22.00
2023-05-23T12:53:52.550Z,22.00
2023-05-23T12:54:54.015Z,22.10
2023-05-23T12:55:55.533Z,22.10
2023-05-23T12:56:57.033Z,22.00
2023-05-23T12:57:58.626Z,22.00
2023-05-23T12:59:02.157Z,21.90
2023-05-23T13:00:04.816Z,22.00
2023-05-23T13:01:07.700Z,22.00
2023-05-23T13:02:09.320Z,22.00
2023-05-23T13:03:10.870Z,22.00
2023-05-23T13:04:12.944Z,22.10
2023-05-23T13:05:14.605Z,22.20
2023-05-23T13:06:16.193Z,22.00
2023-05-23T13:07:18.059Z,22.10
2023-05-23T13:08:20.036Z,22.00
2023-05-23T13:09:21.691Z,22.00
2023-05-23T13:10:23.586Z,21.80
2023-05-23T13:11:25.243Z,21.90
2023-05-23T13:12:26.813Z,22.00
2023-05-23T13:13:28.420Z,22.00
2023-05-23T13:14:30.505Z,22.00
2023-05-23T13:15:32.657Z,22.10
2023-05-23T13:16:36.550Z,22.20
2023-05-23T13:17:38.257Z,21.90
2023-05-23T13:18:39.783Z,21.90
2023-05-23T13:19:42.559Z,22.00
2023-05-23T13:20:45.344Z,22.00
2023-05-23T13:21:49.357Z,22.00
2023-05-23T13:22:51.659Z,21.90
2023-05-23T13:23:53.261Z,21.80
2023-05-23T13:24:55.032Z,21.80
2023-05-23T13:25:58.166Z,21.80
2023-05-23T13:26:59.634Z,21.80
2023-05-23T13:28:01.912Z,21.70
2023-05-23T13:29:06.339Z,21.50
2023-05-23T13:30:08.958Z,21.50
2023-05-23T13:31:12.551Z,21.40
2023-05-23T13:32:14.127Z,21.40
2023-05-23T13:33:15.685Z,21.40
2023-05-23T13:34:17.386Z,21.50
2023-05-23T13:35:19.303Z,21.60
2023-05-23T13:36:20.890Z,21.60
2023-05-23T13:37:22.517Z,21.60
2023-05-23T13:38:26.855Z,21.70
2023-05-23T13:39:28.686Z,21.50
2023-05-23T13:40:30.916Z,21.60
2023-05-23T13:41:32.426Z,21.70
2023-05-23T13:42:36.182Z,21.70
2023-05-23T13:43:37.680Z,21.80
2023-05-23T13:44:42.534Z,21.90
2023-05-23T13:45:44.431Z,21.90
2023-05-23T13:46:46.039Z,22.00
2023-05-23T13:47:47.635Z,22.00
2023-05-23T13:48:49.181Z,21.80
2023-05-23T13:49:50.980Z,21.80